sensor_id;sensor_type;location;lat;lon;timestamp;temperature;humidity
75010;DHT22;63564;46.840;18.336;2023-06-22T00:02:10;22.76;90.11
75010;DHT22;63564;46.840;18.336;2023-06-22T00:05:10;22.79;89.77
75010;DHT22;63564;46.840;18.336;2023-06-22T00:08:11;22.80;89.97
75010;DHT22;63564;46.840;18.336;2023-06-22T00:11:12;22.89;89.44
75010;DHT22;63564;46.840;18.336;2023-06-22T00:14:12;23.00;89.28
75010;DHT22;63564;46.840;18.336;2023-06-22T00:17:12;23.04;89.22
75010;DHT22;63564;46.840;18.336;2023-06-22T00:20:13;23.07;88.70
75010;DHT22;63564;46.840;18.336;2023-06-22T00:23:14;23.04;89.36
75010;DHT22;63564;46.840;18.336;2023-06-22T00:26:16;23.02;89.52
75010;DHT22;63564;46.840;18.336;2023-06-22T00:29:17;23.00;89.53
75010;DHT22;63564;46.840;18.336;2023-06-22T00:32:18;22.94;89.95
75010;DHT22;63564;46.840;18.336;2023-06-22T00:35:19;22.92;90.05
75010;DHT22;63564;46.840;18.336;2023-06-22T00:38:19;22.90;90.15
75010;DHT22;63564;46.840;18.336;2023-06-22T00:41:20;22.83;90.27
75010;DHT22;63564;46.840;18.336;2023-06-22T00:44:20;22.86;89.84
75010;DHT22;63564;46.840;18.336;2023-06-22T00:47:21;22.87;88.99
75010;DHT22;63564;46.840;18.336;2023-06-22T00:50:23;22.90;88.10
75010;DHT22;63564;46.840;18.336;2023-06-22T00:53:23;22.87;87.76
75010;DHT22;63564;46.840;18.336;2023-06-22T00:56:24;22.89;86.51
75010;DHT22;63564;46.840;18.336;2023-06-22T00:59:26;22.87;86.79
75010;DHT22;63564;46.840;18.336;2023-06-22T01:02:26;22.89;86.19
75010;DHT22;63564;46.840;18.336;2023-06-22T01:05:26;22.90;85.50
75010;DHT22;63564;46.840;18.336;2023-06-22T01:08:53;22.85;85.35
75010;DHT22;63564;46.840;18.336;2023-06-22T01:12:01;22.80;85.08
75010;DHT22;63564;46.840;18.336;2023-06-22T01:15:13;22.82;85.43
75010;DHT22;63564;46.840;18.336;2023-06-22T01:18:17;22.73;85.31
75010;DHT22;63564;46.840;18.336;2023-06-22T01:21:20;22.72;85.33
75010;DHT22;63564;46.840;18.336;2023-06-22T01:24:28;22.76;85.05
75010;DHT22;63564;46.840;18.336;2023-06-22T01:30:55;22.65;85.86
75010;DHT22;63564;46.840;18.336;2023-06-22T01:34:05;22.46;86.48
75010;DHT22;63564;46.840;18.336;2023-06-22T01:37:06;22.35;87.33
75010;DHT22;63564;46.840;18.336;2023-06-22T01:40:08;22.32;86.87
75010;DHT22;63564;46.840;18.336;2023-06-22T01:43:09;22.32;86.75
75010;DHT22;63564;46.840;18.336;2023-06-22T01:46:10;22.20;86.92
75010;DHT22;63564;46.840;18.336;2023-06-22T01:49:11;22.14;86.82
75010;DHT22;63564;46.840;18.336;2023-06-22T01:52:12;22.12;86.59
75010;DHT22;63564;46.840;18.336;2023-06-22T01:55:13;22.02;86.83
75010;DHT22;63564;46.840;18.336;2023-06-22T01:58:13;21.93;87.33
75010;DHT22;63564;46.840;18.336;2023-06-22T02:01:19;21.83;88.07
75010;DHT22;63564;46.840;18.336;2023-06-22T02:04:24;21.84;88.02
75010;DHT22;63564;46.840;18.336;2023-06-22T02:07:33;21.86;87.35
75010;DHT22;63564;46.840;18.336;2023-06-22T02:10:38;21.81;87.57
75010;DHT22;63564;46.840;18.336;2023-06-22T02:13:41;21.69;88.65
75010;DHT22;63564;46.840;18.336;2023-06-22T02:16:43;21.64;89.13
75010;DHT22;63564;46.840;18.336;2023-06-22T02:19:44;21.59;89.66
75010;DHT22;63564;46.840;18.336;2023-06-22T02:22:44;21.54;90.08
75010;DHT22;63564;46.840;18.336;2023-06-22T02:25:45;21.53;90.64
75010;DHT22;63564;46.840;18.336;2023-06-22T02:28:45;21.47;91.19
75010;DHT22;63564;46.840;18.336;2023-06-22T02:31:46;21.41;91.55
75010;DHT22;63564;46.840;18.336;2023-06-22T02:34:47;21.46;91.00
75010;DHT22;63564;46.840;18.336;2023-06-22T02:37:47;21.41;91.58
75010;DHT22;63564;46.840;18.336;2023-06-22T02:40:51;21.41;91.97
75010;DHT22;63564;46.840;18.336;2023-06-22T02:43:52;21.32;92.44
75010;DHT22;63564;46.840;18.336;2023-06-22T02:46:52;21.26;92.84
75010;DHT22;63564;46.840;18.336;2023-06-22T02:49:54;21.18;93.21
75010;DHT22;63564;46.840;18.336;2023-06-22T02:52:54;20.99;94.16
75010;DHT22;63564;46.840;18.336;2023-06-22T02:55:55;20.92;94.35
75010;DHT22;63564;46.840;18.336;2023-06-22T02:58:56;20.90;94.41
75010;DHT22;63564;46.840;18.336;2023-06-22T03:02:01;20.88;94.49
75010;DHT22;63564;46.840;18.336;2023-06-22T03:05:02;20.81;94.67
75010;DHT22;63564;46.840;18.336;2023-06-22T03:08:04;20.80;94.81
75010;DHT22;63564;46.840;18.336;2023-06-22T03:11:04;20.77;94.94
75010;DHT22;63564;46.840;18.336;2023-06-22T03:14:04;20.81;95.05
75010;DHT22;63564;46.840;18.336;2023-06-22T03:17:05;20.87;94.67
75010;DHT22;63564;46.840;18.336;2023-06-22T03:20:07;20.84;94.71
75010;DHT22;63564;46.840;18.336;2023-06-22T03:23:09;20.88;94.69
75010;DHT22;63564;46.840;18.336;2023-06-22T03:26:10;20.84;94.79
75010;DHT22;63564;46.840;18.336;2023-06-22T03:29:11;20.83;94.92
75010;DHT22;63564;46.840;18.336;2023-06-22T03:32:11;20.81;94.88
75010;DHT22;63564;46.840;18.336;2023-06-22T03:35:11;20.85;94.68
75010;DHT22;63564;46.840;18.336;2023-06-22T03:38:14;20.88;94.43
75010;DHT22;63564;46.840;18.336;2023-06-22T03:41:14;20.88;94.23
75010;DHT22;63564;46.840;18.336;2023-06-22T03:44:15;20.85;94.33
75010;DHT22;63564;46.840;18.336;2023-06-22T03:47:15;20.83;94.24
75010;DHT22;63564;46.840;18.336;2023-06-22T03:50:17;20.95;93.63
75010;DHT22;63564;46.840;18.336;2023-06-22T03:53:17;21.01;93.48
75010;DHT22;63564;46.840;18.336;2023-06-22T03:56:18;20.99;93.48
75010;DHT22;63564;46.840;18.336;2023-06-22T03:59:20;21.15;92.86
75010;DHT22;63564;46.840;18.336;2023-06-22T04:02:20;21.14;92.77
75010;DHT22;63564;46.840;18.336;2023-06-22T04:05:21;21.05;93.01
75010;DHT22;63564;46.840;18.336;2023-06-22T04:08:21;21.01;93.07
75010;DHT22;63564;46.840;18.336;2023-06-22T04:11:22;20.97;93.16
75010;DHT22;63564;46.840;18.336;2023-06-22T04:14:22;21.14;92.34
75010;DHT22;63564;46.840;18.336;2023-06-22T04:17:22;21.19;92.09
75010;DHT22;63564;46.840;18.336;2023-06-22T04:20:25;21.19;92.26
75010;DHT22;63564;46.840;18.336;2023-06-22T04:23:28;21.24;92.09
75010;DHT22;63564;46.840;18.336;2023-06-22T04:26:28;21.25;92.15
75010;DHT22;63564;46.840;18.336;2023-06-22T04:29:29;21.29;92.00
75010;DHT22;63564;46.840;18.336;2023-06-22T04:32:30;21.29;92.03
75010;DHT22;63564;46.840;18.336;2023-06-22T04:35:30;21.38;91.64
75010;DHT22;63564;46.840;18.336;2023-06-22T04:38:31;21.59;90.84
75010;DHT22;63564;46.840;18.336;2023-06-22T04:41:34;21.64;90.80
75010;DHT22;63564;46.840;18.336;2023-06-22T04:44:41;21.70;90.87
75010;DHT22;63564;46.840;18.336;2023-06-22T04:47:42;21.90;89.81
75010;DHT22;63564;46.840;18.336;2023-06-22T04:50:43;21.87;89.07
75010;DHT22;63564;46.840;18.336;2023-06-22T04:53:44;21.81;88.80
75010;DHT22;63564;46.840;18.336;2023-06-22T04:56:44;21.97;88.41
75010;DHT22;63564;46.840;18.336;2023-06-22T04:59:46;22.11;88.27
75010;DHT22;63564;46.840;18.336;2023-06-22T05:02:47;22.28;87.62
75010;DHT22;63564;46.840;18.336;2023-06-22T05:05:48;22.52;86.90
75010;DHT22;63564;46.840;18.336;2023-06-22T05:08:48;22.49;86.53
75010;DHT22;63564;46.840;18.336;2023-06-22T05:11:48;22.58;86.36
75010;DHT22;63564;46.840;18.336;2023-06-22T05:14:49;22.72;85.27
75010;DHT22;63564;46.840;18.336;2023-06-22T05:17:49;22.75;85.47
75010;DHT22;63564;46.840;18.336;2023-06-22T05:20:50;22.72;84.95
75010;DHT22;63564;46.840;18.336;2023-06-22T05:23:51;22.73;85.82
75010;DHT22;63564;46.840;18.336;2023-06-22T05:26:52;22.70;85.37
75010;DHT22;63564;46.840;18.336;2023-06-22T05:29:52;22.90;84.19
75010;DHT22;63564;46.840;18.336;2023-06-22T05:32:52;22.99;84.32
75010;DHT22;63564;46.840;18.336;2023-06-22T05:35:55;23.08;84.11
75010;DHT22;63564;46.840;18.336;2023-06-22T05:38:56;23.37;83.94
75010;DHT22;63564;46.840;18.336;2023-06-22T05:41:58;23.40;83.35
75010;DHT22;63564;46.840;18.336;2023-06-22T05:44:58;23.38;83.38
75010;DHT22;63564;46.840;18.336;2023-06-22T05:47:59;23.54;82.99
75010;DHT22;63564;46.840;18.336;2023-06-22T05:50:59;23.89;82.04
75010;DHT22;63564;46.840;18.336;2023-06-22T05:54:00;24.03;80.60
75010;DHT22;63564;46.840;18.336;2023-06-22T05:57:00;23.88;81.46
75010;DHT22;63564;46.840;18.336;2023-06-22T06:00:00;24.13;80.29
75010;DHT22;63564;46.840;18.336;2023-06-22T06:03:01;24.10;80.59
75010;DHT22;63564;46.840;18.336;2023-06-22T06:06:04;24.27;80.15
75010;DHT22;63564;46.840;18.336;2023-06-22T06:09:05;24.36;80.05
75010;DHT22;63564;46.840;18.336;2023-06-22T06:12:05;24.58;79.40
75010;DHT22;63564;46.840;18.336;2023-06-22T06:15:06;24.61;79.43
75010;DHT22;63564;46.840;18.336;2023-06-22T06:18:07;24.88;79.52
75010;DHT22;63564;46.840;18.336;2023-06-22T06:21:07;25.08;79.20
75010;DHT22;63564;46.840;18.336;2023-06-22T06:24:08;24.98;78.72
75010;DHT22;63564;46.840;18.336;2023-06-22T06:27:08;24.93;79.79
75010;DHT22;63564;46.840;18.336;2023-06-22T06:30:14;24.78;80.16
75010;DHT22;63564;46.840;18.336;2023-06-22T06:33:14;25.16;79.58
75010;DHT22;63564;46.840;18.336;2023-06-22T06:36:15;25.30;79.06
75010;DHT22;63564;46.840;18.336;2023-06-22T06:39:16;25.51;77.62
75010;DHT22;63564;46.840;18.336;2023-06-22T06:42:17;25.70;77.05
75010;DHT22;63564;46.840;18.336;2023-06-22T06:45:23;25.16;78.62
75010;DHT22;63564;46.840;18.336;2023-06-22T06:48:24;25.19;77.69
75010;DHT22;63564;46.840;18.336;2023-06-22T06:51:24;25.51;77.96
75010;DHT22;63564;46.840;18.336;2023-06-22T06:54:25;25.84;75.93
75010;DHT22;63564;46.840;18.336;2023-06-22T06:57:25;25.78;76.84
75010;DHT22;63564;46.840;18.336;2023-06-22T07:00:30;25.91;76.44
75010;DHT22;63564;46.840;18.336;2023-06-22T07:03:30;26.02;76.49
75010;DHT22;63564;46.840;18.336;2023-06-22T07:06:32;26.33;74.37
75010;DHT22;63564;46.840;18.336;2023-06-22T07:09:33;26.11;78.26
75010;DHT22;63564;46.840;18.336;2023-06-22T07:12:34;26.35;76.11
75010;DHT22;63564;46.840;18.336;2023-06-22T07:15:34;26.29;78.56
75010;DHT22;63564;46.840;18.336;2023-06-22T07:18:35;26.54;76.97
75010;DHT22;63564;46.840;18.336;2023-06-22T07:21:35;26.71;76.46
75010;DHT22;63564;46.840;18.336;2023-06-22T07:24:36;26.98;74.91
75010;DHT22;63564;46.840;18.336;2023-06-22T07:27:38;26.99;73.62
75010;DHT22;63564;46.840;18.336;2023-06-22T07:30:40;27.05;74.97
75010;DHT22;63564;46.840;18.336;2023-06-22T07:33:40;26.94;74.80
75010;DHT22;63564;46.840;18.336;2023-06-22T07:36:40;27.24;74.38
75010;DHT22;63564;46.840;18.336;2023-06-22T07:39:41;27.32;76.37
75010;DHT22;63564;46.840;18.336;2023-06-22T07:42:42;27.02;74.04
75010;DHT22;63564;46.840;18.336;2023-06-22T07:45:48;27.08;74.09
75010;DHT22;63564;46.840;18.336;2023-06-22T07:48:52;27.43;73.59
75010;DHT22;63564;46.840;18.336;2023-06-22T07:51:52;27.71;72.99
75010;DHT22;63564;46.840;18.336;2023-06-22T07:54:52;27.46;73.57
75010;DHT22;63564;46.840;18.336;2023-06-22T07:57:53;27.76;72.59
75010;DHT22;63564;46.840;18.336;2023-06-22T08:00:53;27.63;72.94
75010;DHT22;63564;46.840;18.336;2023-06-22T08:03:54;27.94;71.70
75010;DHT22;63564;46.840;18.336;2023-06-22T08:06:54;27.74;72.55
75010;DHT22;63564;46.840;18.336;2023-06-22T08:09:54;27.98;72.47
75010;DHT22;63564;46.840;18.336;2023-06-22T08:12:55;28.05;72.56
75010;DHT22;63564;46.840;18.336;2023-06-22T08:15:55;28.05;71.21
75010;DHT22;63564;46.840;18.336;2023-06-22T08:18:56;27.80;72.73
75010;DHT22;63564;46.840;18.336;2023-06-22T08:21:56;27.86;72.24
75010;DHT22;63564;46.840;18.336;2023-06-22T08:24:57;28.00;71.96
75010;DHT22;63564;46.840;18.336;2023-06-22T08:27:58;28.15;72.06
75010;DHT22;63564;46.840;18.336;2023-06-22T08:30:59;28.08;71.02
75010;DHT22;63564;46.840;18.336;2023-06-22T08:34:00;27.96;71.66
75010;DHT22;63564;46.840;18.336;2023-06-22T08:37:00;28.08;72.05
75010;DHT22;63564;46.840;18.336;2023-06-22T08:40:03;28.31;71.51
75010;DHT22;63564;46.840;18.336;2023-06-22T08:43:10;28.38;70.50
75010;DHT22;63564;46.840;18.336;2023-06-22T08:46:11;28.75;70.31
75010;DHT22;63564;46.840;18.336;2023-06-22T08:49:11;28.39;71.11
75010;DHT22;63564;46.840;18.336;2023-06-22T08:52:11;28.69;71.63
75010;DHT22;63564;46.840;18.336;2023-06-22T08:55:12;29.02;70.41
75010;DHT22;63564;46.840;18.336;2023-06-22T08:58:12;29.20;71.08
75010;DHT22;63564;46.840;18.336;2023-06-22T09:01:13;28.89;69.86
75010;DHT22;63564;46.840;18.336;2023-06-22T09:04:15;28.84;70.55
75010;DHT22;63564;46.840;18.336;2023-06-22T09:07:15;29.18;70.97
75010;DHT22;63564;46.840;18.336;2023-06-22T09:10:22;29.06;70.05
75010;DHT22;63564;46.840;18.336;2023-06-22T09:13:22;29.03;70.02
75010;DHT22;63564;46.840;18.336;2023-06-22T09:16:23;29.20;69.77
75010;DHT22;63564;46.840;18.336;2023-06-22T09:19:23;29.55;69.72
75010;DHT22;63564;46.840;18.336;2023-06-22T09:22:24;29.44;69.15
75010;DHT22;63564;46.840;18.336;2023-06-22T09:25:29;29.47;69.14
75010;DHT22;63564;46.840;18.336;2023-06-22T09:28:29;29.79;68.94
75010;DHT22;63564;46.840;18.336;2023-06-22T09:31:29;29.88;68.49
75010;DHT22;63564;46.840;18.336;2023-06-22T09:34:30;29.86;68.03
75010;DHT22;63564;46.840;18.336;2023-06-22T09:37:31;30.24;67.91
75010;DHT22;63564;46.840;18.336;2023-06-22T09:40:32;29.89;67.48
75010;DHT22;63564;46.840;18.336;2023-06-22T09:43:35;30.00;67.83
75010;DHT22;63564;46.840;18.336;2023-06-22T09:46:36;30.05;66.83
75010;DHT22;63564;46.840;18.336;2023-06-22T09:49:36;30.41;66.09
75010;DHT22;63564;46.840;18.336;2023-06-22T09:52:37;30.49;67.04
75010;DHT22;63564;46.840;18.336;2023-06-22T09:55:37;30.47;66.81
75010;DHT22;63564;46.840;18.336;2023-06-22T09:58:38;30.83;65.30
75010;DHT22;63564;46.840;18.336;2023-06-22T10:01:38;30.26;66.37
75010;DHT22;63564;46.840;18.336;2023-06-22T10:04:38;30.69;64.14
75010;DHT22;63564;46.840;18.336;2023-06-22T10:07:40;30.75;65.93
75010;DHT22;63564;46.840;18.336;2023-06-22T10:10:43;30.74;66.95
75010;DHT22;63564;46.840;18.336;2023-06-22T10:13:43;31.10;64.35
75010;DHT22;63564;46.840;18.336;2023-06-22T10:16:44;31.30;63.59
75010;DHT22;63564;46.840;18.336;2023-06-22T10:19:44;31.15;67.34
75010;DHT22;63564;46.840;18.336;2023-06-22T10:22:45;30.57;66.79
75010;DHT22;63564;46.840;18.336;2023-06-22T10:25:46;30.76;66.53
75010;DHT22;63564;46.840;18.336;2023-06-22T10:28:46;30.86;64.92
75010;DHT22;63564;46.840;18.336;2023-06-22T10:31:47;31.22;63.67
75010;DHT22;63564;46.840;18.336;2023-06-22T10:34:47;31.33;62.95
75010;DHT22;63564;46.840;18.336;2023-06-22T10:37:48;31.18;67.72
75010;DHT22;63564;46.840;18.336;2023-06-22T10:40:48;31.80;64.04
75010;DHT22;63564;46.840;18.336;2023-06-22T10:43:48;32.01;61.51
75010;DHT22;63564;46.840;18.336;2023-06-22T10:46:49;31.56;66.29
75010;DHT22;63564;46.840;18.336;2023-06-22T10:49:49;31.19;63.94
75010;DHT22;63564;46.840;18.336;2023-06-22T10:52:50;31.33;63.24
75010;DHT22;63564;46.840;18.336;2023-06-22T10:55:50;31.66;63.03
75010;DHT22;63564;46.840;18.336;2023-06-22T10:58:51;31.80;63.50
75010;DHT22;63564;46.840;18.336;2023-06-22T11:01:52;32.29;60.69
75010;DHT22;63564;46.840;18.336;2023-06-22T11:04:53;32.44;59.68
75010;DHT22;63564;46.840;18.336;2023-06-22T11:07:53;31.75;61.65
75010;DHT22;63564;46.840;18.336;2023-06-22T11:10:53;32.31;59.44
75010;DHT22;63564;46.840;18.336;2023-06-22T11:13:54;32.94;58.62
75010;DHT22;63564;46.840;18.336;2023-06-22T11:16:54;32.87;57.58
75010;DHT22;63564;46.840;18.336;2023-06-22T11:19:55;32.64;58.28
75010;DHT22;63564;46.840;18.336;2023-06-22T11:22:55;32.64;60.29
75010;DHT22;63564;46.840;18.336;2023-06-22T11:25:56;33.07;56.14
75010;DHT22;63564;46.840;18.336;2023-06-22T11:28:56;33.34;56.46
75010;DHT22;63564;46.840;18.336;2023-06-22T11:31:56;32.83;58.71
75010;DHT22;63564;46.840;18.336;2023-06-22T11:34:57;33.48;55.36
75010;DHT22;63564;46.840;18.336;2023-06-22T11:37:57;33.05;58.68
75010;DHT22;63564;46.840;18.336;2023-06-22T11:40:58;32.86;59.92
75010;DHT22;63564;46.840;18.336;2023-06-22T11:43:59;33.45;55.77
75010;DHT22;63564;46.840;18.336;2023-06-22T11:46:59;33.76;55.43
75010;DHT22;63564;46.840;18.336;2023-06-22T11:50:01;33.82;55.55
75010;DHT22;63564;46.840;18.336;2023-06-22T11:53:02;33.89;56.64
75010;DHT22;63564;46.840;18.336;2023-06-22T11:56:03;32.94;55.13
75010;DHT22;63564;46.840;18.336;2023-06-22T11:59:03;32.92;56.80
75010;DHT22;63564;46.840;18.336;2023-06-22T12:02:04;33.19;56.77
75010;DHT22;63564;46.840;18.336;2023-06-22T12:05:06;33.53;55.57
75010;DHT22;63564;46.840;18.336;2023-06-22T12:08:08;33.85;55.53
75010;DHT22;63564;46.840;18.336;2023-06-22T12:11:08;34.38;54.05
75010;DHT22;63564;46.840;18.336;2023-06-22T12:14:08;33.89;55.29
75010;DHT22;63564;46.840;18.336;2023-06-22T12:17:09;34.03;53.41
75010;DHT22;63564;46.840;18.336;2023-06-22T12:20:09;34.16;53.30
75010;DHT22;63564;46.840;18.336;2023-06-22T12:23:10;33.92;53.45
75010;DHT22;63564;46.840;18.336;2023-06-22T12:26:10;34.85;51.96
75010;DHT22;63564;46.840;18.336;2023-06-22T12:29:11;34.89;51.51
75010;DHT22;63564;46.840;18.336;2023-06-22T12:32:11;34.03;55.18
75010;DHT22;63564;46.840;18.336;2023-06-22T12:35:15;34.96;51.07
75010;DHT22;63564;46.840;18.336;2023-06-22T12:38:15;35.44;49.30
75010;DHT22;63564;46.840;18.336;2023-06-22T12:41:16;35.09;51.39
75010;DHT22;63564;46.840;18.336;2023-06-22T12:44:17;35.20;50.36
75010;DHT22;63564;46.840;18.336;2023-06-22T12:47:17;36.87;46.85
75010;DHT22;63564;46.840;18.336;2023-06-22T12:50:17;37.83;43.76
75010;DHT22;63564;46.840;18.336;2023-06-22T12:53:18;36.71;47.66
75010;DHT22;63564;46.840;18.336;2023-06-22T12:56:18;36.83;47.67
75010;DHT22;63564;46.840;18.336;2023-06-22T12:59:19;35.40;50.09
75010;DHT22;63564;46.840;18.336;2023-06-22T13:02:19;36.16;50.59
75010;DHT22;63564;46.840;18.336;2023-06-22T13:05:19;35.87;48.28
75010;DHT22;63564;46.840;18.336;2023-06-22T13:08:20;36.12;47.79
75010;DHT22;63564;46.840;18.336;2023-06-22T13:11:20;36.02;45.61
75010;DHT22;63564;46.840;18.336;2023-06-22T13:14:21;35.75;46.36
75010;DHT22;63564;46.840;18.336;2023-06-22T13:17:21;36.26;46.53
75010;DHT22;63564;46.840;18.336;2023-06-22T13:20:22;36.60;43.61
75010;DHT22;63564;46.840;18.336;2023-06-22T13:23:22;36.70;44.97
75010;DHT22;63564;46.840;18.336;2023-06-22T13:26:23;36.22;53.32
75010;DHT22;63564;46.840;18.336;2023-06-22T13:29:23;35.94;46.01
75010;DHT22;63564;46.840;18.336;2023-06-22T13:32:23;37.51;45.66
75010;DHT22;63564;46.840;18.336;2023-06-22T13:35:24;38.10;42.66
75010;DHT22;63564;46.840;18.336;2023-06-22T13:38:24;37.05;43.80
75010;DHT22;63564;46.840;18.336;2023-06-22T13:41:25;37.39;41.63
75010;DHT22;63564;46.840;18.336;2023-06-22T13:44:25;38.34;40.13
75010;DHT22;63564;46.840;18.336;2023-06-22T13:47:29;39.39;40.29
75010;DHT22;63564;46.840;18.336;2023-06-22T13:50:30;38.44;41.93
75010;DHT22;63564;46.840;18.336;2023-06-22T13:53:31;39.24;39.33
75010;DHT22;63564;46.840;18.336;2023-06-22T13:56:32;39.07;39.35
75010;DHT22;63564;46.840;18.336;2023-06-22T13:59:32;40.40;37.75
75010;DHT22;63564;46.840;18.336;2023-06-22T14:02:33;39.46;38.22
75010;DHT22;63564;46.840;18.336;2023-06-22T14:05:33;39.10;38.62
75010;DHT22;63564;46.840;18.336;2023-06-22T14:08:33;39.99;40.24
75010;DHT22;63564;46.840;18.336;2023-06-22T14:11:34;39.47;42.58
75010;DHT22;63564;46.840;18.336;2023-06-22T14:14:34;39.71;37.46
75010;DHT22;63564;46.840;18.336;2023-06-22T14:17:35;39.94;42.25
75010;DHT22;63564;46.840;18.336;2023-06-22T14:20:35;38.79;40.70
75010;DHT22;63564;46.840;18.336;2023-06-22T14:23:35;40.05;39.88
75010;DHT22;63564;46.840;18.336;2023-06-22T14:26:37;40.26;38.14
75010;DHT22;63564;46.840;18.336;2023-06-22T14:29:37;40.57;38.86
75010;DHT22;63564;46.840;18.336;2023-06-22T14:32:38;41.24;35.96
75010;DHT22;63564;46.840;18.336;2023-06-22T14:35:38;39.94;40.67
75010;DHT22;63564;46.840;18.336;2023-06-22T14:38:39;41.89;36.53
75010;DHT22;63564;46.840;18.336;2023-06-22T14:41:39;40.92;36.56
75010;DHT22;63564;46.840;18.336;2023-06-22T14:44:39;39.58;41.67
75010;DHT22;63564;46.840;18.336;2023-06-22T14:47:40;37.80;43.71
75010;DHT22;63564;46.840;18.336;2023-06-22T14:50:40;36.90;45.49
75010;DHT22;63564;46.840;18.336;2023-06-22T14:53:41;37.96;39.00
75010;DHT22;63564;46.840;18.336;2023-06-22T14:56:42;35.70;45.64
75010;DHT22;63564;46.840;18.336;2023-06-22T14:59:43;36.12;45.87
75010;DHT22;63564;46.840;18.336;2023-06-22T15:02:43;33.82;47.97
75010;DHT22;63564;46.840;18.336;2023-06-22T15:05:45;33.65;53.68
75010;DHT22;63564;46.840;18.336;2023-06-22T15:08:46;33.31;50.70
75010;DHT22;63564;46.840;18.336;2023-06-22T15:11:46;33.68;51.51
75010;DHT22;63564;46.840;18.336;2023-06-22T15:14:46;34.11;49.22
75010;DHT22;63564;46.840;18.336;2023-06-22T15:17:47;34.23;51.77
75010;DHT22;63564;46.840;18.336;2023-06-22T15:20:47;33.36;56.30
75010;DHT22;63564;46.840;18.336;2023-06-22T15:23:48;33.70;55.06
75010;DHT22;63564;46.840;18.336;2023-06-22T15:26:48;33.72;53.56
75010;DHT22;63564;46.840;18.336;2023-06-22T15:29:48;33.14;56.15
75010;DHT22;63564;46.840;18.336;2023-06-22T15:32:49;33.08;53.33
75010;DHT22;63564;46.840;18.336;2023-06-22T15:35:49;33.31;53.60
75010;DHT22;63564;46.840;18.336;2023-06-22T15:38:50;33.55;51.57
75010;DHT22;63564;46.840;18.336;2023-06-22T15:41:50;33.08;54.01
75010;DHT22;63564;46.840;18.336;2023-06-22T15:44:54;33.26;59.05
75010;DHT22;63564;46.840;18.336;2023-06-22T15:47:54;33.29;55.56
75010;DHT22;63564;46.840;18.336;2023-06-22T15:50:55;32.91;60.01
75010;DHT22;63564;46.840;18.336;2023-06-22T15:53:55;32.76;56.98
75010;DHT22;63564;46.840;18.336;2023-06-22T15:56:55;32.84;58.13
75010;DHT22;63564;46.840;18.336;2023-06-22T15:59:56;32.73;61.78
75010;DHT22;63564;46.840;18.336;2023-06-22T16:02:56;32.86;57.00
75010;DHT22;63564;46.840;18.336;2023-06-22T16:05:57;32.76;61.48
75010;DHT22;63564;46.840;18.336;2023-06-22T16:08:58;32.80;59.70
75010;DHT22;63564;46.840;18.336;2023-06-22T16:11:58;32.60;58.96
75010;DHT22;63564;46.840;18.336;2023-06-22T16:14:59;32.86;56.81
75010;DHT22;63564;46.840;18.336;2023-06-22T16:17:59;32.74;57.39
75010;DHT22;63564;46.840;18.336;2023-06-22T16:21:00;32.87;58.39
75010;DHT22;63564;46.840;18.336;2023-06-22T16:24:00;32.76;56.21
75010;DHT22;63564;46.840;18.336;2023-06-22T16:27:00;32.84;58.30
75010;DHT22;63564;46.840;18.336;2023-06-22T16:30:01;32.97;57.92
75010;DHT22;63564;46.840;18.336;2023-06-22T16:33:01;33.10;57.18
75010;DHT22;63564;46.840;18.336;2023-06-22T16:36:02;32.96;58.82
75010;DHT22;63564;46.840;18.336;2023-06-22T16:39:03;32.91;58.26
75010;DHT22;63564;46.840;18.336;2023-06-22T16:42:04;32.50;59.96
75010;DHT22;63564;46.840;18.336;2023-06-22T16:45:04;32.49;59.36
75010;DHT22;63564;46.840;18.336;2023-06-22T16:48:05;32.53;58.94
75010;DHT22;63564;46.840;18.336;2023-06-22T16:51:07;32.33;60.17
75010;DHT22;63564;46.840;18.336;2023-06-22T16:54:07;32.44;57.14
75010;DHT22;63564;46.840;18.336;2023-06-22T16:57:08;32.36;56.71
75010;DHT22;63564;46.840;18.336;2023-06-22T17:00:09;32.18;59.14
75010;DHT22;63564;46.840;18.336;2023-06-22T17:03:16;32.08;59.85
75010;DHT22;63564;46.840;18.336;2023-06-22T17:06:19;31.89;60.95
75010;DHT22;63564;46.840;18.336;2023-06-22T17:09:21;31.74;61.02
75010;DHT22;63564;46.840;18.336;2023-06-22T17:12:22;31.71;60.16
75010;DHT22;63564;46.840;18.336;2023-06-22T17:15:24;31.87;59.95
75010;DHT22;63564;46.840;18.336;2023-06-22T17:18:25;31.60;61.19
75010;DHT22;63564;46.840;18.336;2023-06-22T17:21:26;31.60;62.12
75010;DHT22;63564;46.840;18.336;2023-06-22T17:24:27;31.48;63.33
75010;DHT22;63564;46.840;18.336;2023-06-22T17:27:28;31.46;63.45
75010;DHT22;63564;46.840;18.336;2023-06-22T17:30:29;31.37;63.48
75010;DHT22;63564;46.840;18.336;2023-06-22T17:33:31;31.22;63.82
75010;DHT22;63564;46.840;18.336;2023-06-22T17:36:32;30.98;64.58
75010;DHT22;63564;46.840;18.336;2023-06-22T17:39:32;30.91;64.89
75010;DHT22;63564;46.840;18.336;2023-06-22T17:42:32;30.86;65.25
75010;DHT22;63564;46.840;18.336;2023-06-22T17:45:40;30.91;65.50
75010;DHT22;63564;46.840;18.336;2023-06-22T17:48:43;30.76;65.84
75010;DHT22;63564;46.840;18.336;2023-06-22T17:51:44;30.68;66.23
75010;DHT22;63564;46.840;18.336;2023-06-22T17:54:45;30.64;65.83
75010;DHT22;63564;46.840;18.336;2023-06-22T17:57:45;30.65;66.08
75010;DHT22;63564;46.840;18.336;2023-06-22T18:00:50;30.55;66.61
75010;DHT22;63564;46.840;18.336;2023-06-22T18:03:50;30.40;67.02
75010;DHT22;63564;46.840;18.336;2023-06-22T18:06:51;30.20;67.65
75010;DHT22;63564;46.840;18.336;2023-06-22T18:09:53;30.17;68.11
75010;DHT22;63564;46.840;18.336;2023-06-22T18:12:54;30.03;68.32
75010;DHT22;63564;46.840;18.336;2023-06-22T18:15:56;29.89;69.07
75010;DHT22;63564;46.840;18.336;2023-06-22T18:18:58;29.85;69.36
75010;DHT22;63564;46.840;18.336;2023-06-22T18:21:59;29.69;69.69
75010;DHT22;63564;46.840;18.336;2023-06-22T18:25:01;29.55;70.12
75010;DHT22;63564;46.840;18.336;2023-06-22T18:28:03;29.44;70.52
75010;DHT22;63564;46.840;18.336;2023-06-22T18:31:04;29.31;70.75
75010;DHT22;63564;46.840;18.336;2023-06-22T18:34:07;29.17;71.66
75010;DHT22;63564;46.840;18.336;2023-06-22T18:37:13;29.03;72.30
75010;DHT22;63564;46.840;18.336;2023-06-22T18:40:14;28.97;72.79
75010;DHT22;63564;46.840;18.336;2023-06-22T18:43:21;28.87;73.34
75010;DHT22;63564;46.840;18.336;2023-06-22T18:46:35;28.75;73.39
75010;DHT22;63564;46.840;18.336;2023-06-22T18:52:40;28.77;73.38